sensor_id;sensor_type;location;lat;lon;timestamp;P1;durP1;ratioP1;P2;durP2;ratioP2
72053;SDS011;59918;51.280;7.950;2022-07-29T00:01:36;4.38;;;1.70;;
72053;SDS011;59918;51.280;7.950;2022-07-29T00:04:02;3.50;;;1.80;;
72053;SDS011;59918;51.280;7.950;2022-07-29T00:06:29;5.95;;;1.65;;
72053;SDS011;59918;51.280;7.950;2022-07-29T00:08:55;5.25;;;1.80;;
72053;SDS011;59918;51.280;7.950;2022-07-29T00:11:20;3.53;;;1.75;;
72053;SDS011;59918;51.280;7.950;2022-07-29T00:13:48;5.13;;;2.00;;
72053;SDS011;59918;51.280;7.950;2022-07-29T00:16:13;5.78;;;1.90;;
72053;SDS011;59918;51.280;7.950;2022-07-29T00:18:38;4.70;;;2.00;;
72053;SDS011;59918;51.280;7.950;2022-07-29T00:21:03;3.22;;;2.05;;
72053;SDS011;59918;51.280;7.950;2022-07-29T00:23:29;5.30;;;1.95;;
72053;SDS011;59918;51.280;7.950;2022-07-29T00:25:54;6.97;;;2.22;;
72053;SDS011;59918;51.280;7.950;2022-07-29T00:28:22;3.97;;;1.90;;
72053;SDS011;59918;51.280;7.950;2022-07-29T00:30:47;2.53;;;1.60;;
72053;SDS011;59918;51.280;7.950;2022-07-29T00:33:12;3.15;;;1.95;;
72053;SDS011;59918;51.280;7.950;2022-07-29T00:35:42;2.35;;;2.15;;
72053;SDS011;59918;51.280;7.950;2022-07-29T00:38:07;3.40;;;2.08;;
72053;SDS011;59918;51.280;7.950;2022-07-29T00:40:32;4.57;;;2.03;;
72053;SDS011;59918;51.280;7.950;2022-07-29T00:42:58;4.50;;;1.80;;
72053;SDS011;59918;51.280;7.950;2022-07-29T00:45:23;3.63;;;1.95;;
72053;SDS011;59918;51.280;7.950;2022-07-29T00:47:48;3.30;;;1.88;;
72053;SDS011;59918;51.280;7.950;2022-07-29T00:50:14;2.53;;;1.90;;
72053;SDS011;59918;51.280;7.950;2022-07-29T00:52:42;2.88;;;2.25;;
72053;SDS011;59918;51.280;7.950;2022-07-29T00:55:08;4.28;;;2.00;;
72053;SDS011;59918;51.280;7.950;2022-07-29T00:57:38;3.28;;;1.95;;
72053;SDS011;59918;51.280;7.950;2022-07-29T01:00:08;2.20;;;2.00;;
72053;SDS011;59918;51.280;7.950;2022-07-29T01:02:38;3.47;;;1.60;;
72053;SDS011;59918;51.280;7.950;2022-07-29T01:05:04;2.67;;;2.03;;
72053;SDS011;59918;51.280;7.950;2022-07-29T01:07:30;4.45;;;1.88;;
72053;SDS011;59918;51.280;7.950;2022-07-29T01:09:58;5.07;;;1.90;;
72053;SDS011;59918;51.280;7.950;2022-07-29T01:12:28;4.20;;;1.98;;
72053;SDS011;59918;51.280;7.950;2022-07-29T01:14:55;5.18;;;2.10;;
72053;SDS011;59918;51.280;7.950;2022-07-29T01:17:26;4.43;;;2.08;;
72053;SDS011;59918;51.280;7.950;2022-07-29T01:20:15;3.20;;;2.08;;
72053;SDS011;59918;51.280;7.950;2022-07-29T01:31:05;5.20;;;2.20;;
72053;SDS011;59918;51.280;7.950;2022-07-29T01:33:32;2.47;;;2.25;;
72053;SDS011;59918;51.280;7.950;2022-07-29T01:36:01;2.85;;;2.05;;
72053;SDS011;59918;51.280;7.950;2022-07-29T01:38:37;2.22;;;2.00;;
72053;SDS011;59918;51.280;7.950;2022-07-29T01:41:07;3.22;;;2.00;;
72053;SDS011;59918;51.280;7.950;2022-07-29T01:43:42;5.53;;;2.05;;
72053;SDS011;59918;51.280;7.950;2022-07-29T01:46:24;2.10;;;1.73;;
72053;SDS011;59918;51.280;7.950;2022-07-29T01:49:14;3.78;;;1.80;;
72053;SDS011;59918;51.280;7.950;2022-07-29T01:51:43;4.07;;;1.70;;
72053;SDS011;59918;51.280;7.950;2022-07-29T01:57:02;3.67;;;1.90;;
72053;SDS011;59918;51.280;7.950;2022-07-29T01:59:29;2.65;;;1.75;;
72053;SDS011;59918;51.280;7.950;2022-07-29T02:01:57;5.90;;;2.05;;
72053;SDS011;59918;51.280;7.950;2022-07-29T02:04:24;4.22;;;1.70;;
72053;SDS011;59918;51.280;7.950;2022-07-29T02:06:52;2.53;;;1.85;;
72053;SDS011;59918;51.280;7.950;2022-07-29T02:09:21;2.70;;;2.20;;
72053;SDS011;59918;51.280;7.950;2022-07-29T02:11:52;4.07;;;1.88;;
72053;SDS011;59918;51.280;7.950;2022-07-29T02:14:19;6.93;;;2.42;;
72053;SDS011;59918;51.280;7.950;2022-07-29T02:16:47;7.95;;;2.15;;
72053;SDS011;59918;51.280;7.950;2022-07-29T02:19:15;6.30;;;2.25;;
72053;SDS011;59918;51.280;7.950;2022-07-29T02:21:43;13.30;;;2.47;;
72053;SDS011;59918;51.280;7.950;2022-07-29T02:24:09;5.88;;;3.10;;
72053;SDS011;59918;51.280;7.950;2022-07-29T02:26:36;5.22;;;3.00;;
72053;SDS011;59918;51.280;7.950;2022-07-29T02:29:04;13.65;;;2.92;;
72053;SDS011;59918;51.280;7.950;2022-07-29T02:31:32;9.77;;;3.45;;
72053;SDS011;59918;51.280;7.950;2022-07-29T02:33:59;5.53;;;3.47;;
72053;SDS011;59918;51.280;7.950;2022-07-29T02:36:31;11.20;;;3.90;;
72053;SDS011;59918;51.280;7.950;2022-07-29T02:39:00;9.18;;;3.80;;
72053;SDS011;59918;51.280;7.950;2022-07-29T02:41:35;5.85;;;3.35;;
72053;SDS011;59918;51.280;7.950;2022-07-29T02:44:16;11.07;;;3.72;;
72053;SDS011;59918;51.280;7.950;2022-07-29T02:52:03;7.32;;;4.20;;
72053;SDS011;59918;51.280;7.950;2022-07-29T02:57:00;4.47;;;4.03;;
72053;SDS011;59918;51.280;7.950;2022-07-29T02:59:29;9.95;;;4.15;;
72053;SDS011;59918;51.280;7.950;2022-07-29T03:01:59;9.55;;;4.25;;
72053;SDS011;59918;51.280;7.950;2022-07-29T03:04:27;4.63;;;3.78;;
72053;SDS011;59918;51.280;7.950;2022-07-29T03:06:53;4.97;;;4.28;;
72053;SDS011;59918;51.280;7.950;2022-07-29T03:09:20;4.55;;;3.75;;
72053;SDS011;59918;51.280;7.950;2022-07-29T03:11:46;3.55;;;3.25;;
72053;SDS011;59918;51.280;7.950;2022-07-29T03:14:12;4.88;;;3.30;;
72053;SDS011;59918;51.280;7.950;2022-07-29T03:16:38;5.35;;;3.10;;
72053;SDS011;59918;51.280;7.950;2022-07-29T03:19:04;7.55;;;2.90;;
72053;SDS011;59918;51.280;7.950;2022-07-29T03:21:30;6.88;;;3.33;;
72053;SDS011;59918;51.280;7.950;2022-07-29T03:23:56;4.10;;;3.17;;
72053;SDS011;59918;51.280;7.950;2022-07-29T03:26:21;4.07;;;3.20;;
72053;SDS011;59918;51.280;7.950;2022-07-29T03:28:46;5.85;;;3.60;;
72053;SDS011;59918;51.280;7.950;2022-07-29T03:31:11;3.72;;;3.10;;
72053;SDS011;59918;51.280;7.950;2022-07-29T03:33:37;5.60;;;3.30;;
72053;SDS011;59918;51.280;7.950;2022-07-29T03:36:02;4.30;;;3.25;;
72053;SDS011;59918;51.280;7.950;2022-07-29T03:38:27;2.95;;;2.67;;
72053;SDS011;59918;51.280;7.950;2022-07-29T03:41:00;4.40;;;3.55;;
72053;SDS011;59918;51.280;7.950;2022-07-29T03:43:30;5.32;;;3.42;;
72053;SDS011;59918;51.280;7.950;2022-07-29T03:45:57;4.88;;;3.40;;
72053;SDS011;59918;51.280;7.950;2022-07-29T03:48:25;5.35;;;3.63;;
72053;SDS011;59918;51.280;7.950;2022-07-29T03:50:54;4.50;;;3.70;;
72053;SDS011;59918;51.280;7.950;2022-07-29T03:53:20;3.53;;;3.22;;
72053;SDS011;59918;51.280;7.950;2022-07-29T03:55:47;5.07;;;3.53;;
72053;SDS011;59918;51.280;7.950;2022-07-29T03:58:15;7.28;;;3.80;;
72053;SDS011;59918;51.280;7.950;2022-07-29T04:00:41;6.35;;;3.67;;
72053;SDS011;59918;51.280;7.950;2022-07-29T04:03:09;6.78;;;3.83;;
72053;SDS011;59918;51.280;7.950;2022-07-29T04:05:35;3.55;;;3.15;;
72053;SDS011;59918;51.280;7.950;2022-07-29T04:08:00;4.28;;;3.10;;
72053;SDS011;59918;51.280;7.950;2022-07-29T04:10:28;4.85;;;3.17;;
72053;SDS011;59918;51.280;7.950;2022-07-29T04:12:53;8.13;;;3.60;;
72053;SDS011;59918;51.280;7.950;2022-07-29T04:15:19;4.88;;;2.80;;
72053;SDS011;59918;51.280;7.950;2022-07-29T04:17:44;6.47;;;3.30;;
72053;SDS011;59918;51.280;7.950;2022-07-29T04:20:09;5.03;;;3.17;;
72053;SDS011;59918;51.280;7.950;2022-07-29T04:22:35;3.42;;;3.08;;
72053;SDS011;59918;51.280;7.950;2022-07-29T04:25:00;4.53;;;3.38;;
72053;SDS011;59918;51.280;7.950;2022-07-29T04:27:28;4.57;;;3.33;;
72053;SDS011;59918;51.280;7.950;2022-07-29T04:29:56;3.60;;;3.17;;
72053;SDS011;59918;51.280;7.950;2022-07-29T04:32:21;8.27;;;3.65;;
72053;SDS011;59918;51.280;7.950;2022-07-29T04:34:47;8.93;;;3.15;;
72053;SDS011;59918;51.280;7.950;2022-07-29T04:37:14;3.92;;;2.80;;
72053;SDS011;59918;51.280;7.950;2022-07-29T04:39:40;5.57;;;3.13;;
72053;SDS011;59918;51.280;7.950;2022-07-29T04:42:05;9.75;;;3.25;;
72053;SDS011;59918;51.280;7.950;2022-07-29T04:44:30;6.40;;;3.10;;
72053;SDS011;59918;51.280;7.950;2022-07-29T04:46:56;4.65;;;3.38;;
72053;SDS011;59918;51.280;7.950;2022-07-29T04:49:24;3.67;;;3.38;;
72053;SDS011;59918;51.280;7.950;2022-07-29T04:51:49;3.40;;;3.00;;
72053;SDS011;59918;51.280;7.950;2022-07-29T04:54:17;4.03;;;3.17;;
72053;SDS011;59918;51.280;7.950;2022-07-29T04:56:44;4.40;;;2.90;;
72053;SDS011;59918;51.280;7.950;2022-07-29T04:59:10;8.98;;;3.67;;
72053;SDS011;59918;51.280;7.950;2022-07-29T05:01:37;6.78;;;3.15;;
72053;SDS011;59918;51.280;7.950;2022-07-29T05:04:03;3.47;;;3.13;;
72053;SDS011;59918;51.280;7.950;2022-07-29T05:06:28;5.78;;;3.15;;
72053;SDS011;59918;51.280;7.950;2022-07-29T05:08:53;5.88;;;3.28;;
72053;SDS011;59918;51.280;7.950;2022-07-29T05:11:19;4.15;;;2.90;;
72053;SDS011;59918;51.280;7.950;2022-07-29T05:13:44;3.65;;;3.15;;
72053;SDS011;59918;51.280;7.950;2022-07-29T05:16:09;3.63;;;2.70;;
72053;SDS011;59918;51.280;7.950;2022-07-29T05:18:34;5.55;;;2.88;;
72053;SDS011;59918;51.280;7.950;2022-07-29T05:21:00;3.33;;;3.05;;
72053;SDS011;59918;51.280;7.950;2022-07-29T05:23:27;5.97;;;3.38;;
72053;SDS011;59918;51.280;7.950;2022-07-29T05:25:52;5.00;;;3.47;;
72053;SDS011;59918;51.280;7.950;2022-07-29T05:28:17;9.70;;;3.25;;
72053;SDS011;59918;51.280;7.950;2022-07-29T05:30:43;6.38;;;4.05;;
72053;SDS011;59918;51.280;7.950;2022-07-29T05:33:10;4.13;;;3.20;;
72053;SDS011;59918;51.280;7.950;2022-07-29T05:35:36;4.50;;;2.95;;
72053;SDS011;59918;51.280;7.950;2022-07-29T05:38:01;4.85;;;3.28;;
72053;SDS011;59918;51.280;7.950;2022-07-29T05:42:59;4.72;;;3.33;;
72053;SDS011;59918;51.280;7.950;2022-07-29T05:45:25;4.88;;;3.05;;
72053;SDS011;59918;51.280;7.950;2022-07-29T05:47:50;6.85;;;3.60;;
72053;SDS011;59918;51.280;7.950;2022-07-29T05:50:15;5.32;;;3.67;;
72053;SDS011;59918;51.280;7.950;2022-07-29T05:52:40;7.75;;;4.00;;
72053;SDS011;59918;51.280;7.950;2022-07-29T05:55:06;5.00;;;3.72;;
72053;SDS011;59918;51.280;7.950;2022-07-29T05:57:31;6.80;;;3.30;;
72053;SDS011;59918;51.280;7.950;2022-07-29T05:59:57;5.32;;;2.90;;
72053;SDS011;59918;51.280;7.950;2022-07-29T06:02:22;10.23;;;3.47;;
72053;SDS011;59918;51.280;7.950;2022-07-29T06:04:48;5.45;;;3.38;;
72053;SDS011;59918;51.280;7.950;2022-07-29T06:07:15;7.13;;;2.80;;
72053;SDS011;59918;51.280;7.950;2022-07-29T06:09:43;6.70;;;2.90;;
72053;SDS011;59918;51.280;7.950;2022-07-29T06:12:08;3.92;;;2.90;;
72053;SDS011;59918;51.280;7.950;2022-07-29T06:14:34;3.35;;;2.45;;
72053;SDS011;59918;51.280;7.950;2022-07-29T06:17:00;4.72;;;2.85;;
72053;SDS011;59918;51.280;7.950;2022-07-29T06:19:25;3.83;;;2.38;;
72053;SDS011;59918;51.280;7.950;2022-07-29T06:21:51;3.60;;;2.70;;
72053;SDS011;59918;51.280;7.950;2022-07-29T06:24:18;5.93;;;2.97;;
72053;SDS011;59918;51.280;7.950;2022-07-29T06:26:44;4.70;;;2.67;;
72053;SDS011;59918;51.280;7.950;2022-07-29T06:29:09;4.82;;;2.72;;
72053;SDS011;59918;51.280;7.950;2022-07-29T06:31:35;5.50;;;2.80;;
72053;SDS011;59918;51.280;7.950;2022-07-29T06:34:00;5.78;;;2.83;;
72053;SDS011;59918;51.280;7.950;2022-07-29T06:36:28;3.95;;;2.60;;
72053;SDS011;59918;51.280;7.950;2022-07-29T06:38:58;4.72;;;3.03;;
72053;SDS011;59918;51.280;7.950;2022-07-29T06:41:24;5.43;;;2.83;;
72053;SDS011;59918;51.280;7.950;2022-07-29T06:43:51;3.38;;;2.45;;
72053;SDS011;59918;51.280;7.950;2022-07-29T06:46:17;4.32;;;2.95;;
72053;SDS011;59918;51.280;7.950;2022-07-29T06:48:43;4.90;;;2.78;;
72053;SDS011;59918;51.280;7.950;2022-07-29T06:51:09;6.93;;;2.72;;
72053;SDS011;59918;51.280;7.950;2022-07-29T06:53:35;4.80;;;2.85;;
72053;SDS011;59918;51.280;7.950;2022-07-29T06:56:01;7.10;;;3.30;;
72053;SDS011;59918;51.280;7.950;2022-07-29T06:58:29;9.07;;;2.45;;
72053;SDS011;59918;51.280;7.950;2022-07-29T07:00:55;5.90;;;3.20;;
72053;SDS011;59918;51.280;7.950;2022-07-29T07:03:21;9.40;;;2.80;;
72053;SDS011;59918;51.280;7.950;2022-07-29T07:05:47;3.53;;;2.42;;
72053;SDS011;59918;51.280;7.950;2022-07-29T07:08:12;7.65;;;2.05;;
72053;SDS011;59918;51.280;7.950;2022-07-29T07:10:40;5.05;;;2.38;;
72053;SDS011;59918;51.280;7.950;2022-07-29T07:13:06;3.35;;;2.38;;
72053;SDS011;59918;51.280;7.950;2022-07-29T07:15:31;6.07;;;2.90;;
72053;SDS011;59918;51.280;7.950;2022-07-29T07:17:57;8.90;;;2.67;;
72053;SDS011;59918;51.280;7.950;2022-07-29T07:20:22;13.05;;;3.13;;
72053;SDS011;59918;51.280;7.950;2022-07-29T07:22:47;3.75;;;2.40;;
72053;SDS011;59918;51.280;7.950;2022-07-29T07:25:13;6.88;;;2.40;;
72053;SDS011;59918;51.280;7.950;2022-07-29T07:27:38;3.92;;;2.33;;
72053;SDS011;59918;51.280;7.950;2022-07-29T07:30:04;6.03;;;3.03;;
72053;SDS011;59918;51.280;7.950;2022-07-29T07:32:31;7.80;;;2.33;;
72053;SDS011;59918;51.280;7.950;2022-07-29T07:34:57;6.85;;;2.50;;
72053;SDS011;59918;51.280;7.950;2022-07-29T07:37:23;7.47;;;2.90;;
72053;SDS011;59918;51.280;7.950;2022-07-29T07:39:51;15.80;;;3.10;;
72053;SDS011;59918;51.280;7.950;2022-07-29T07:42:17;5.88;;;2.42;;
72053;SDS011;59918;51.280;7.950;2022-07-29T07:44:42;4.53;;;2.33;;
72053;SDS011;59918;51.280;7.950;2022-07-29T07:47:08;3.53;;;2.80;;
72053;SDS011;59918;51.280;7.950;2022-07-29T07:49:35;3.88;;;2.28;;
72053;SDS011;59918;51.280;7.950;2022-07-29T07:52:00;4.55;;;2.47;;
72053;SDS011;59918;51.280;7.950;2022-07-29T07:54:28;10.23;;;2.58;;
72053;SDS011;59918;51.280;7.950;2022-07-29T07:56:54;6.65;;;2.13;;
72053;SDS011;59918;51.280;7.950;2022-07-29T07:59:19;5.15;;;2.83;;
72053;SDS011;59918;51.280;7.950;2022-07-29T08:01:44;4.50;;;2.13;;
72053;SDS011;59918;51.280;7.950;2022-07-29T08:04:09;7.72;;;2.20;;
72053;SDS011;59918;51.280;7.950;2022-07-29T08:06:35;7.05;;;2.45;;
72053;SDS011;59918;51.280;7.950;2022-07-29T08:09:00;7.05;;;2.05;;
72053;SDS011;59918;51.280;7.950;2022-07-29T08:11:34;7.75;;;2.28;;
72053;SDS011;59918;51.280;7.950;2022-07-29T08:13:59;5.90;;;2.28;;
72053;SDS011;59918;51.280;7.950;2022-07-29T08:16:25;3.53;;;1.88;;
72053;SDS011;59918;51.280;7.950;2022-07-29T08:18:50;6.55;;;2.35;;
72053;SDS011;59918;51.280;7.950;2022-07-29T08:21:16;2.03;;;1.77;;
72053;SDS011;59918;51.280;7.950;2022-07-29T08:23:43;3.55;;;1.90;;
72053;SDS011;59918;51.280;7.950;2022-07-29T08:26:09;4.35;;;2.22;;
72053;SDS011;59918;51.280;7.950;2022-07-29T08:28:34;4.35;;;2.35;;
72053;SDS011;59918;51.280;7.950;2022-07-29T08:31:00;3.70;;;1.88;;
72053;SDS011;59918;51.280;7.950;2022-07-29T08:33:25;4.07;;;2.03;;
72053;SDS011;59918;51.280;7.950;2022-07-29T08:35:50;3.85;;;1.92;;
72053;SDS011;59918;51.280;7.950;2022-07-29T08:38:16;4.50;;;1.85;;
72053;SDS011;59918;51.280;7.950;2022-07-29T08:40:41;2.97;;;2.03;;
72053;SDS011;59918;51.280;7.950;2022-07-29T08:43:07;4.55;;;1.95;;
72053;SDS011;59918;51.280;7.950;2022-07-29T08:45:36;3.20;;;1.80;;
72053;SDS011;59918;51.280;7.950;2022-07-29T08:48:12;4.78;;;1.73;;
72053;SDS011;59918;51.280;7.950;2022-07-29T08:50:38;4.45;;;2.05;;
72053;SDS011;59918;51.280;7.950;2022-07-29T08:53:06;3.17;;;1.90;;
72053;SDS011;59918;51.280;7.950;2022-07-29T08:55:35;3.75;;;1.92;;
72053;SDS011;59918;51.280;7.950;2022-07-29T08:58:21;2.40;;;1.80;;
72053;SDS011;59918;51.280;7.950;2022-07-29T09:00:50;2.45;;;2.15;;
72053;SDS011;59918;51.280;7.950;2022-07-29T09:03:21;5.88;;;2.20;;
72053;SDS011;59918;51.280;7.950;2022-07-29T09:05:48;4.18;;;1.85;;
72053;SDS011;59918;51.280;7.950;2022-07-29T09:08:14;4.80;;;1.80;;
72053;SDS011;59918;51.280;7.950;2022-07-29T09:10:40;3.22;;;1.63;;
72053;SDS011;59918;51.280;7.950;2022-07-29T09:13:05;3.33;;;1.90;;
72053;SDS011;59918;51.280;7.950;2022-07-29T09:15:31;9.02;;;1.90;;
72053;SDS011;59918;51.280;7.950;2022-07-29T09:17:56;2.13;;;1.92;;
72053;SDS011;59918;51.280;7.950;2022-07-29T09:20:21;8.70;;;2.40;;
72053;SDS011;59918;51.280;7.950;2022-07-29T09:22:47;2.30;;;1.80;;
72053;SDS011;59918;51.280;7.950;2022-07-29T09:25:13;4.40;;;1.65;;
72053;SDS011;59918;51.280;7.950;2022-07-29T09:28:04;5.53;;;2.00;;
72053;SDS011;59918;51.280;7.950;2022-07-29T09:30:53;5.35;;;1.85;;
72053;SDS011;59918;51.280;7.950;2022-07-29T09:33:20;3.95;;;2.42;;
72053;SDS011;59918;51.280;7.950;2022-07-29T09:35:58;6.35;;;1.80;;
72053;SDS011;59918;51.280;7.950;2022-07-29T09:38:24;5.50;;;2.00;;
72053;SDS011;59918;51.280;7.950;2022-07-29T09:40:56;2.88;;;1.80;;
72053;SDS011;59918;51.280;7.950;2022-07-29T09:43:22;1.95;;;1.77;;
72053;SDS011;59918;51.280;7.950;2022-07-29T09:45:47;4.03;;;2.17;;
72053;SDS011;59918;51.280;7.950;2022-07-29T09:48:16;3.40;;;1.70;;
72053;SDS011;59918;51.280;7.950;2022-07-29T09:50:46;4.22;;;1.95;;
72053;SDS011;59918;51.280;7.950;2022-07-29T09:53:12;2.53;;;1.60;;
72053;SDS011;59918;51.280;7.950;2022-07-29T09:58:19;3.70;;;2.75;;
72053;SDS011;59918;51.280;7.950;2022-07-29T10:00:46;6.85;;;1.88;;
72053;SDS011;59918;51.280;7.950;2022-07-29T10:03:13;3.55;;;1.88;;
72053;SDS011;59918;51.280;7.950;2022-07-29T10:05:39;4.65;;;2.05;;
72053;SDS011;59918;51.280;7.950;2022-07-29T10:08:04;4.28;;;2.00;;
72053;SDS011;59918;51.280;7.950;2022-07-29T10:10:31;2.38;;;1.70;;
72053;SDS011;59918;51.280;7.950;2022-07-29T10:13:02;2.65;;;1.50;;
72053;SDS011;59918;51.280;7.950;2022-07-29T10:15:30;4.00;;;1.50;;
72053;SDS011;59918;51.280;7.950;2022-07-29T10:17:58;3.97;;;1.75;;
72053;SDS011;59918;51.280;7.950;2022-07-29T10:20:24;1.73;;;1.63;;
72053;SDS011;59918;51.280;7.950;2022-07-29T10:22:52;5.47;;;2.10;;
72053;SDS011;59918;51.280;7.950;2022-07-29T10:25:18;3.97;;;1.95;;
72053;SDS011;59918;51.280;7.950;2022-07-29T10:27:45;7.13;;;2.38;;
72053;SDS011;59918;51.280;7.950;2022-07-29T10:30:11;2.83;;;1.83;;
72053;SDS011;59918;51.280;7.950;2022-07-29T10:32:39;4.75;;;2.35;;
72053;SDS011;59918;51.280;7.950;2022-07-29T10:43:41;5.95;;;2.30;;
72053;SDS011;59918;51.280;7.950;2022-07-29T10:46:09;2.33;;;2.10;;
72053;SDS011;59918;51.280;7.950;2022-07-29T10:49:03;4.10;;;2.53;;
72053;SDS011;59918;51.280;7.950;2022-07-29T10:54:17;2.92;;;2.05;;
72053;SDS011;59918;51.280;7.950;2022-07-29T10:56:43;4.78;;;1.80;;
72053;SDS011;59918;51.280;7.950;2022-07-29T11:01:43;5.38;;;1.88;;
72053;SDS011;59918;51.280;7.950;2022-07-29T11:04:08;3.50;;;2.17;;
72053;SDS011;59918;51.280;7.950;2022-07-29T11:09:30;4.32;;;1.88;;
72053;SDS011;59918;51.280;7.950;2022-07-29T11:11:59;5.43;;;2.05;;
72053;SDS011;59918;51.280;7.950;2022-07-29T11:17:15;6.47;;;2.22;;
72053;SDS011;59918;51.280;7.950;2022-07-29T11:19:40;5.32;;;1.85;;
72053;SDS011;59918;51.280;7.950;2022-07-29T11:22:07;5.28;;;2.50;;
72053;SDS011;59918;51.280;7.950;2022-07-29T11:24:33;5.32;;;2.70;;
72053;SDS011;59918;51.280;7.950;2022-07-29T11:27:05;4.95;;;2.00;;
72053;SDS011;59918;51.280;7.950;2022-07-29T11:29:54;2.47;;;1.90;;
72053;SDS011;59918;51.280;7.950;2022-07-29T11:32:22;3.33;;;2.17;;
72053;SDS011;59918;51.280;7.950;2022-07-29T11:34:49;3.33;;;2.13;;
72053;SDS011;59918;51.280;7.950;2022-07-29T11:37:34;5.47;;;2.22;;
72053;SDS011;59918;51.280;7.950;2022-07-29T11:40:07;4.57;;;2.47;;
72053;SDS011;59918;51.280;7.950;2022-07-29T11:45:00;3.40;;;2.00;;
72053;SDS011;59918;51.280;7.950;2022-07-29T11:47:28;5.38;;;2.90;;
72053;SDS011;59918;51.280;7.950;2022-07-29T11:49:55;4.55;;;2.20;;
72053;SDS011;59918;51.280;7.950;2022-07-29T11:52:21;3.17;;;2.30;;
72053;SDS011;59918;51.280;7.950;2022-07-29T11:54:47;4.00;;;2.30;;
72053;SDS011;59918;51.280;7.950;2022-07-29T11:57:13;4.40;;;2.00;;
72053;SDS011;59918;51.280;7.950;2022-07-29T11:59:41;4.68;;;1.90;;
72053;SDS011;59918;51.280;7.950;2022-07-29T12:02:09;8.73;;;2.17;;
72053;SDS011;59918;51.280;7.950;2022-07-29T12:07:32;3.55;;;2.03;;
72053;SDS011;59918;51.280;7.950;2022-07-29T12:10:00;6.45;;;2.90;;
72053;SDS011;59918;51.280;7.950;2022-07-29T12:12:27;4.63;;;2.00;;
72053;SDS011;59918;51.280;7.950;2022-07-29T12:14:52;7.80;;;1.70;;
72053;SDS011;59918;51.280;7.950;2022-07-29T12:17:24;7.18;;;2.40;;
72053;SDS011;59918;51.280;7.950;2022-07-29T12:19:53;10.35;;;2.15;;
72053;SDS011;59918;51.280;7.950;2022-07-29T12:22:32;9.77;;;2.78;;
72053;SDS011;59918;51.280;7.950;2022-07-29T12:25:18;4.05;;;2.03;;
72053;SDS011;59918;51.280;7.950;2022-07-29T12:27:44;4.22;;;1.90;;
72053;SDS011;59918;51.280;7.950;2022-07-29T12:30:13;7.22;;;2.20;;
72053;SDS011;59918;51.280;7.950;2022-07-29T12:35:14;7.47;;;2.20;;
72053;SDS011;59918;51.280;7.950;2022-07-29T12:37:41;6.03;;;2.25;;
72053;SDS011;59918;51.280;7.950;2022-07-29T12:40:08;5.38;;;2.10;;
72053;SDS011;59918;51.280;7.950;2022-07-29T12:42:34;5.28;;;1.95;;
72053;SDS011;59918;51.280;7.950;2022-07-29T12:45:00;7.07;;;2.08;;
72053;SDS011;59918;51.280;7.950;2022-07-29T12:47:26;4.35;;;1.80;;
72053;SDS011;59918;51.280;7.950;2022-07-29T12:50:06;4.82;;;2.50;;
72053;SDS011;59918;51.280;7.950;2022-07-29T12:52:35;3.80;;;2.55;;
72053;SDS011;59918;51.280;7.950;2022-07-29T12:55:01;6.28;;;2.28;;
72053;SDS011;59918;51.280;7.950;2022-07-29T12:57:27;4.93;;;2.10;;
72053;SDS011;59918;51.280;7.950;2022-07-29T13:02:34;3.65;;;1.85;;
72053;SDS011;59918;51.280;7.950;2022-07-29T13:05:02;5.50;;;2.05;;
72053;SDS011;59918;51.280;7.950;2022-07-29T13:07:30;6.82;;;1.92;;
72053;SDS011;59918;51.280;7.950;2022-07-29T13:10:15;4.63;;;1.67;;
72053;SDS011;59918;51.280;7.950;2022-07-29T13:13:01;3.47;;;2.00;;
72053;SDS011;59918;51.280;7.950;2022-07-29T13:15:26;7.90;;;2.65;;
72053;SDS011;59918;51.280;7.950;2022-07-29T13:17:51;7.97;;;2.25;;
72053;SDS011;59918;51.280;7.950;2022-07-29T13:20:17;4.30;;;1.80;;
72053;SDS011;59918;51.280;7.950;2022-07-29T13:22:42;5.22;;;2.03;;
72053;SDS011;59918;51.280;7.950;2022-07-29T13:25:08;5.18;;;1.85;;
72053;SDS011;59918;51.280;7.950;2022-07-29T13:27:34;6.70;;;2.45;;
72053;SDS011;59918;51.280;7.950;2022-07-29T13:30:01;2.47;;;1.83;;
72053;SDS011;59918;51.280;7.950;2022-07-29T13:32:31;3.85;;;1.70;;
72053;SDS011;59918;51.280;7.950;2022-07-29T13:34:58;6.30;;;1.80;;
72053;SDS011;59918;51.280;7.950;2022-07-29T13:37:25;4.40;;;1.90;;
72053;SDS011;59918;51.280;7.950;2022-07-29T13:39:50;3.47;;;1.98;;
72053;SDS011;59918;51.280;7.950;2022-07-29T13:42:16;4.57;;;1.73;;
72053;SDS011;59918;51.280;7.950;2022-07-29T13:44:41;2.47;;;1.88;;
72053;SDS011;59918;51.280;7.950;2022-07-29T13:47:07;7.68;;;2.42;;
72053;SDS011;59918;51.280;7.950;2022-07-29T13:49:33;4.00;;;1.70;;
72053;SDS011;59918;51.280;7.950;2022-07-29T13:52:01;4.50;;;1.63;;
72053;SDS011;59918;51.280;7.950;2022-07-29T13:54:26;4.53;;;1.88;;
72053;SDS011;59918;51.280;7.950;2022-07-29T13:56:52;5.57;;;2.43;;
72053;SDS011;59918;51.280;7.950;2022-07-29T13:59:17;5.20;;;1.83;;
72053;SDS011;59918;51.280;7.950;2022-07-29T14:01:44;4.07;;;1.58;;
72053;SDS011;59918;51.280;7.950;2022-07-29T14:04:09;3.78;;;1.50;;
72053;SDS011;59918;51.280;7.950;2022-07-29T14:06:35;4.88;;;1.92;;
72053;SDS011;59918;51.280;7.950;2022-07-29T14:09:01;4.00;;;1.50;;
72053;SDS011;59918;51.280;7.950;2022-07-29T14:11:27;3.75;;;1.80;;
72053;SDS011;59918;51.280;7.950;2022-07-29T14:13:52;2.97;;;1.50;;
72053;SDS011;59918;51.280;7.950;2022-07-29T14:16:18;4.47;;;1.50;;
72053;SDS011;59918;51.280;7.950;2022-07-29T14:18:43;5.78;;;1.80;;
72053;SDS011;59918;51.280;7.950;2022-07-29T14:21:10;7.70;;;2.00;;
72053;SDS011;59918;51.280;7.950;2022-07-29T14:23:37;7.13;;;1.55;;
72053;SDS011;59918;51.280;7.950;2022-07-29T14:26:02;4.57;;;1.70;;
72053;SDS011;59918;51.280;7.950;2022-07-29T14:28:30;3.08;;;1.60;;
72053;SDS011;59918;51.280;7.950;2022-07-29T14:30:55;5.97;;;2.00;;
72053;SDS011;59918;51.280;7.950;2022-07-29T14:33:20;5.32;;;1.73;;
72053;SDS011;59918;51.280;7.950;2022-07-29T14:35:45;4.47;;;1.73;;
72053;SDS011;59918;51.280;7.950;2022-07-29T14:38:11;5.00;;;1.80;;
72053;SDS011;59918;51.280;7.950;2022-07-29T14:40:36;4.43;;;1.83;;
72053;SDS011;59918;51.280;7.950;2022-07-29T14:43:02;5.40;;;1.92;;
72053;SDS011;59918;51.280;7.950;2022-07-29T14:45:27;3.10;;;1.95;;
72053;SDS011;59918;51.280;7.950;2022-07-29T14:47:53;2.60;;;1.85;;
72053;SDS011;59918;51.280;7.950;2022-07-29T14:50:18;6.25;;;1.77;;
72053;SDS011;59918;51.280;7.950;2022-07-29T14:52:43;7.90;;;1.90;;
72053;SDS011;59918;51.280;7.950;2022-07-29T14:55:08;8.70;;;1.80;;
72053;SDS011;59918;51.280;7.950;2022-07-29T14:57:34;5.57;;;2.15;;
72053;SDS011;59918;51.280;7.950;2022-07-29T15:00:03;4.55;;;2.25;;
72053;SDS011;59918;51.280;7.950;2022-07-29T15:02:29;7.05;;;1.95;;
72053;SDS011;59918;51.280;7.950;2022-07-29T15:04:55;2.47;;;1.67;;
72053;SDS011;59918;51.280;7.950;2022-07-29T15:07:20;3.50;;;1.90;;
72053;SDS011;59918;51.280;7.950;2022-07-29T15:09:45;9.40;;;1.80;;
72053;SDS011;59918;51.280;7.950;2022-07-29T15:12:11;6.20;;;1.60;;
72053;SDS011;59918;51.280;7.950;2022-07-29T15:14:36;7.28;;;1.95;;
72053;SDS011;59918;51.280;7.950;2022-07-29T15:17:02;6.97;;;2.10;;
72053;SDS011;59918;51.280;7.950;2022-07-29T15:19:27;9.15;;;1.90;;
72053;SDS011;59918;51.280;7.950;2022-07-29T15:21:52;4.40;;;1.67;;
72053;SDS011;59918;51.280;7.950;2022-07-29T15:24:18;9.05;;;2.03;;
72053;SDS011;59918;51.280;7.950;2022-07-29T15:26:43;2.55;;;1.40;;
72053;SDS011;59918;51.280;7.950;2022-07-29T15:29:09;3.05;;;1.75;;
72053;SDS011;59918;51.280;7.950;2022-07-29T15:31:34;5.25;;;1.85;;
72053;SDS011;59918;51.280;7.950;2022-07-29T15:33:59;5.25;;;2.10;;
72053;SDS011;59918;51.280;7.950;2022-07-29T15:36:24;4.28;;;1.73;;
72053;SDS011;59918;51.280;7.950;2022-07-29T15:38:51;7.93;;;3.38;;
72053;SDS011;59918;51.280;7.950;2022-07-29T15:41:17;3.42;;;1.90;;
72053;SDS011;59918;51.280;7.950;2022-07-29T15:43:43;4.40;;;2.10;;